Cal Poly SLO, California
Current Conditions -  °F | °C
As of 10:56 AM on Sunday 23 Nov 2014 (Local Time) from KSBP Reporting Station
Scattered Clouds Scattered Clouds  
Wind Chill: 65°   Ceiling: Unl
Heat Index: 65°   Visibility: 10mi
Dew Point: 36°   Wind: 3mph
Humidity: 34%   Direction: NA
Pressure: 30.26"   Gusts: NA
Location:  35.2748°N, 120.738°W
Report Text: KSBP 231856Z VRB03KT 10SM SCT200 18/02 A3026 RMK AO2 SLP246 T01830022
Loading
Personal Weather Stations






























Interactive Weather Map New forecast layout! Learn more

10-Day Weather Forecast

Advertisements
Track Severe Weather on mobile